ドーハ の空港の天気 - METARとTAF

ドーハ国際空港 ( OTBD / DOH ) - カタール ドーハ
飛行場実況気象(Metar)
観測時間05/28 13:30 AST (05/28 10:30 UTC)
風向・風速北 9m/s
視程10km以上
天気現象
なし
気温39℃
湿度13%
気圧1004hPa
METAROTBD 281030Z AUTO 35018KT CAVOK 39/06 Q1004 NOSIG
過去の天気等 Google飛行場航空写真 Wunderground天気予報

過去48時間のMETAR

飛行場予報(TAF)
発表時間: 5/28 08:08 AST (5/28 05:08 UTC)
予報対象時間: 28日9時 AST ~ 29日15時 AST
風向・風速北西 6m/s
視程8000m
なし
28日9時 AST ~ 28日20時 AST に一時的に
風向・風速北北東 6m/s
TAF OTBD 280508Z 2806/2912 32012KT 8000 NSC
TEMPO 2806/2817 02012KT